Atlanta, Georgia
Traffic Map
Current Weather Conditions
Atlanta, Georgia
Scattered Clouds
Scattered Clouds
27°
Feels Like: 28°
Wind Chill: 27° Ceiling: Unl
Heat Index: 28° Visibility: 10mi
Dew Point: 17° Wind: 6mph
Humidity: 52% Direction: 170° (S)
Pressure: 30.09in Gusts: 0mph
Raw Report DataKATL 270206Z 17005KT 10SM FEW055 SCT100 SCT200 27/17 A3009 RMK AO2 RAE02 TSE06 TS DSIPTD P0000 T02720167
Traffic Incident Summary
Active as of:
Severity:
Category:
InformationThere was an issue retrieving the traffic information for this location. Please try a different location or try again shortly.
Advertisements
Track Severe Weather on mobile